sensor_id;sensor_type;location;lat;lon;timestamp;pressure;altitude;pressure_sealevel;temperature;humidity
15750;BME280;7976;52.526;13.326;2023-03-01T00:01:30;102703.16;;;2.33;70.41
15750;BME280;7976;52.526;13.326;2023-03-01T00:03:59;102703.94;;;2.31;70.35
15750;BME280;7976;52.526;13.326;2023-03-01T00:06:27;102712.50;;;2.30;70.58
15750;BME280;7976;52.526;13.326;2023-03-01T00:08:54;102702.19;;;2.30;70.45
15750;BME280;7976;52.526;13.326;2023-03-01T00:11:24;102703.88;;;2.29;70.51
15750;BME280;7976;52.526;13.326;2023-03-01T00:13:54;102693.56;;;2.29;70.55
15750;BME280;7976;52.526;13.326;2023-03-01T00:16:25;102690.88;;;2.26;70.73
15750;BME280;7976;52.526;13.326;2023-03-01T00:18:53;102692.66;;;2.27;70.79
15750;BME280;7976;52.526;13.326;2023-03-01T00:21:23;102684.81;;;2.24;70.94
15750;BME280;7976;52.526;13.326;2023-03-01T00:23:50;102684.00;;;2.25;71.13
15750;BME280;7976;52.526;13.326;2023-03-01T00:26:19;102689.16;;;2.25;71.12
15750;BME280;7976;52.526;13.326;2023-03-01T00:28:47;102683.06;;;2.23;71.19
15750;BME280;7976;52.526;13.326;2023-03-01T00:31:17;102679.56;;;2.21;71.15
15750;BME280;7976;52.526;13.326;2023-03-01T00:33:45;102677.75;;;2.17;71.36
15750;BME280;7976;52.526;13.326;2023-03-01T00:36:15;102669.97;;;2.16;71.33
15750;BME280;7976;52.526;13.326;2023-03-01T00:38:45;102672.53;;;2.16;71.38
15750;BME280;7976;52.526;13.326;2023-03-01T00:41:15;102680.22;;;2.14;71.48
15750;BME280;7976;52.526;13.326;2023-03-01T00:43:44;102684.53;;;2.14;71.31
15750;BME280;7976;52.526;13.326;2023-03-01T00:46:14;102679.41;;;2.15;71.55
15750;BME280;7976;52.526;13.326;2023-03-01T00:48:41;102677.53;;;2.11;71.47
15750;BME280;7976;52.526;13.326;2023-03-01T00:51:11;102679.19;;;2.09;71.63
15750;BME280;7976;52.526;13.326;2023-03-01T00:53:39;102677.47;;;2.08;71.43
15750;BME280;7976;52.526;13.326;2023-03-01T00:56:10;102679.03;;;2.03;71.49
15750;BME280;7976;52.526;13.326;2023-03-01T00:58:38;102687.44;;;1.96;71.46
15750;BME280;7976;52.526;13.326;2023-03-01T01:01:09;102673.53;;;1.91;71.81
15750;BME280;7976;52.526;13.326;2023-03-01T01:03:45;102664.09;;;1.92;71.95
15750;BME280;7976;52.526;13.326;2023-03-01T01:06:21;102668.34;;;1.91;72.00
15750;BME280;7976;52.526;13.326;2023-03-01T01:08:49;102668.28;;;1.88;71.99
15750;BME280;7976;52.526;13.326;2023-03-01T01:11:19;102667.34;;;1.86;71.93
15750;BME280;7976;52.526;13.326;2023-03-01T01:13:47;102661.25;;;1.84;71.85
15750;BME280;7976;52.526;13.326;2023-03-01T01:16:15;102651.69;;;1.80;72.28
15750;BME280;7976;52.526;13.326;2023-03-01T01:18:43;102651.63;;;1.77;72.12
15750;BME280;7976;52.526;13.326;2023-03-01T01:21:13;102648.84;;;1.71;72.38
15750;BME280;7976;52.526;13.326;2023-03-01T01:23:42;102652.13;;;1.66;72.07
15750;BME280;7976;52.526;13.326;2023-03-01T01:26:13;102642.53;;;1.62;72.50
15750;BME280;7976;52.526;13.326;2023-03-01T01:28:41;102651.97;;;1.61;72.70
15750;BME280;7976;52.526;13.326;2023-03-01T01:31:08;102633.97;;;1.63;72.67
15750;BME280;7976;52.526;13.326;2023-03-01T01:33:36;102632.22;;;1.62;72.74
15750;BME280;7976;52.526;13.326;2023-03-01T01:36:05;102630.50;;;1.61;72.92
15750;BME280;7976;52.526;13.326;2023-03-01T01:38:32;102623.56;;;1.60;72.95
15750;BME280;7976;52.526;13.326;2023-03-01T01:40:59;102619.28;;;1.60;73.02
15750;BME280;7976;52.526;13.326;2023-03-01T01:43:31;102620.97;;;1.60;73.14
15750;BME280;7976;52.526;13.326;2023-03-01T01:46:03;102619.31;;;1.62;73.40
15750;BME280;7976;52.526;13.326;2023-03-01T01:48:39;102614.22;;;1.63;73.19
15750;BME280;7976;52.526;13.326;2023-03-01T01:51:13;102617.63;;;1.62;73.24
15750;BME280;7976;52.526;13.326;2023-03-01T01:53:42;102610.72;;;1.61;73.10
15750;BME280;7976;52.526;13.326;2023-03-01T01:56:14;102622.75;;;1.61;73.22
15750;BME280;7976;52.526;13.326;2023-03-01T01:58:43;102617.50;;;1.59;73.21
15750;BME280;7976;52.526;13.326;2023-03-01T02:01:11;102620.94;;;1.58;73.30
15750;BME280;7976;52.526;13.326;2023-03-01T02:03:42;102621.78;;;1.57;73.10
15750;BME280;7976;52.526;13.326;2023-03-01T02:06:19;102627.84;;;1.59;73.26
15750;BME280;7976;52.526;13.326;2023-03-01T02:08:50;102623.59;;;1.61;73.13
15750;BME280;7976;52.526;13.326;2023-03-01T02:11:20;102629.59;;;1.60;73.13
15750;BME280;7976;52.526;13.326;2023-03-01T02:13:48;102637.28;;;1.59;73.15
15750;BME280;7976;52.526;13.326;2023-03-01T02:16:17;102640.84;;;1.62;73.42
15750;BME280;7976;52.526;13.326;2023-03-01T02:18:45;102633.09;;;1.62;73.26
15750;BME280;7976;52.526;13.326;2023-03-01T02:21:38;102639.13;;;1.63;73.41
15750;BME280;7976;52.526;13.326;2023-03-01T02:24:24;102635.69;;;1.62;73.41
15750;BME280;7976;52.526;13.326;2023-03-01T02:26:57;102639.97;;;1.62;73.58
15750;BME280;7976;52.526;13.326;2023-03-01T02:29:28;102637.28;;;1.59;73.27
15750;BME280;7976;52.526;13.326;2023-03-01T02:31:59;102633.00;;;1.59;73.52
15750;BME280;7976;52.526;13.326;2023-03-01T02:34:27;102638.22;;;1.61;73.93
15750;BME280;7976;52.526;13.326;2023-03-01T02:37:01;102629.66;;;1.62;73.88
15750;BME280;7976;52.526;13.326;2023-03-01T02:39:35;102641.00;;;1.68;74.12
15750;BME280;7976;52.526;13.326;2023-03-01T02:42:11;102632.50;;;1.71;74.00
15750;BME280;7976;52.526;13.326;2023-03-01T02:44:40;102635.00;;;1.69;73.89
15750;BME280;7976;52.526;13.326;2023-03-01T02:47:07;102630.75;;;1.70;74.01
15750;BME280;7976;52.526;13.326;2023-03-01T02:49:36;102628.13;;;1.68;73.98
15750;BME280;7976;52.526;13.326;2023-03-01T02:52:40;102624.59;;;1.66;74.06
15750;BME280;7976;52.526;13.326;2023-03-01T02:55:14;102623.75;;;1.66;74.29
15750;BME280;7976;52.526;13.326;2023-03-01T02:57:46;102619.41;;;1.65;74.25
15750;BME280;7976;52.526;13.326;2023-03-01T03:00:21;102610.78;;;1.64;74.39
15750;BME280;7976;52.526;13.326;2023-03-01T03:02:53;102603.97;;;1.66;74.47
15750;BME280;7976;52.526;13.326;2023-03-01T03:05:26;102603.97;;;1.66;74.53
15750;BME280;7976;52.526;13.326;2023-03-01T03:07:57;102612.56;;;1.65;74.45
15750;BME280;7976;52.526;13.326;2023-03-01T03:10:29;102609.94;;;1.64;74.39
15750;BME280;7976;52.526;13.326;2023-03-01T03:12:59;102606.50;;;1.65;74.31
15750;BME280;7976;52.526;13.326;2023-03-01T03:15:29;102609.97;;;1.65;74.47
15750;BME280;7976;52.526;13.326;2023-03-01T03:17:58;102610.91;;;1.67;74.59
15750;BME280;7976;52.526;13.326;2023-03-01T03:20:27;102611.72;;;1.66;74.48
15750;BME280;7976;52.526;13.326;2023-03-01T03:22:56;102618.66;;;1.67;74.51
15750;BME280;7976;52.526;13.326;2023-03-01T03:25:26;102611.00;;;1.70;74.61
15750;BME280;7976;52.526;13.326;2023-03-01T03:27:54;102611.78;;;1.69;74.44
15750;BME280;7976;52.526;13.326;2023-03-01T03:30:29;102608.31;;;1.67;74.53
15750;BME280;7976;52.526;13.326;2023-03-01T03:32:57;102604.81;;;1.65;74.45
15750;BME280;7976;52.526;13.326;2023-03-01T03:35:29;102595.31;;;1.64;74.61
15750;BME280;7976;52.526;13.326;2023-03-01T03:37:58;102598.72;;;1.63;74.74
15750;BME280;7976;52.526;13.326;2023-03-01T03:40:31;102588.34;;;1.60;74.64
15750;BME280;7976;52.526;13.326;2023-03-01T03:42:58;102585.63;;;1.56;74.69
15750;BME280;7976;52.526;13.326;2023-03-01T03:45:25;102586.41;;;1.53;74.64
15750;BME280;7976;52.526;13.326;2023-03-01T03:47:54;102589.81;;;1.52;74.83
15750;BME280;7976;52.526;13.326;2023-03-01T03:50:20;102587.25;;;1.52;74.96
15750;BME280;7976;52.526;13.326;2023-03-01T03:52:47;102582.84;;;1.50;74.70
15750;BME280;7976;52.526;13.326;2023-03-01T03:55:14;102581.13;;;1.49;74.68
15750;BME280;7976;52.526;13.326;2023-03-01T03:57:48;102576.69;;;1.45;74.61
15750;BME280;7976;52.526;13.326;2023-03-01T04:00:22;102566.34;;;1.43;74.77
15750;BME280;7976;52.526;13.326;2023-03-01T04:02:52;102567.97;;;1.41;74.83
15750;BME280;7976;52.526;13.326;2023-03-01T04:05:24;102573.91;;;1.37;75.00
15750;BME280;7976;52.526;13.326;2023-03-01T04:07:52;102569.56;;;1.36;75.08
15750;BME280;7976;52.526;13.326;2023-03-01T04:10:27;102568.75;;;1.37;75.05
15750;BME280;7976;52.526;13.326;2023-03-01T04:12:55;102574.72;;;1.36;75.19
15750;BME280;7976;52.526;13.326;2023-03-01T04:15:24;102565.28;;;1.37;75.28
15750;BME280;7976;52.526;13.326;2023-03-01T04:17:53;102575.63;;;1.38;75.41
15750;BME280;7976;52.526;13.326;2023-03-01T04:20:24;102578.13;;;1.35;75.38
15750;BME280;7976;52.526;13.326;2023-03-01T04:22:57;102583.19;;;1.32;75.50
15750;BME280;7976;52.526;13.326;2023-03-01T04:25:24;102577.19;;;1.33;75.53
15750;BME280;7976;52.526;13.326;2023-03-01T04:27:51;102581.44;;;1.31;75.68
15750;BME280;7976;52.526;13.326;2023-03-01T04:30:18;102583.06;;;1.29;75.73
15750;BME280;7976;52.526;13.326;2023-03-01T04:32:45;102576.16;;;1.26;75.75
15750;BME280;7976;52.526;13.326;2023-03-01T04:35:12;102584.56;;;1.21;75.53
15750;BME280;7976;52.526;13.326;2023-03-01T04:37:43;102565.66;;;1.20;75.65
15750;BME280;7976;52.526;13.326;2023-03-01T04:40:11;102568.28;;;1.22;75.77
15750;BME280;7976;52.526;13.326;2023-03-01T04:42:42;102575.00;;;1.17;75.58
15750;BME280;7976;52.526;13.326;2023-03-01T04:45:10;102574.00;;;1.12;75.65
15750;BME280;7976;52.526;13.326;2023-03-01T04:47:43;102573.09;;;1.11;75.82
15750;BME280;7976;52.526;13.326;2023-03-01T04:50:14;102568.88;;;1.13;75.67
15750;BME280;7976;52.526;13.326;2023-03-01T04:52:43;102572.31;;;1.14;75.82
15750;BME280;7976;52.526;13.326;2023-03-01T04:55:11;102575.75;;;1.14;75.78
15750;BME280;7976;52.526;13.326;2023-03-01T04:57:40;102569.72;;;1.14;75.71
15750;BME280;7976;52.526;13.326;2023-03-01T05:00:12;102575.75;;;1.14;75.81
15750;BME280;7976;52.526;13.326;2023-03-01T05:02:51;102571.41;;;1.12;75.54
15750;BME280;7976;52.526;13.326;2023-03-01T05:05:24;102562.84;;;1.13;75.76
15750;BME280;7976;52.526;13.326;2023-03-01T05:07:58;102573.22;;;1.16;75.82
15750;BME280;7976;52.526;13.326;2023-03-01T05:10:27;102564.66;;;1.15;75.78
15750;BME280;7976;52.526;13.326;2023-03-01T05:12:55;102567.09;;;1.12;75.68
15750;BME280;7976;52.526;13.326;2023-03-01T05:15:23;102567.94;;;1.11;75.73
15750;BME280;7976;52.526;13.326;2023-03-01T05:17:51;102570.44;;;1.08;75.51
15750;BME280;7976;52.526;13.326;2023-03-01T05:20:18;102565.19;;;1.05;75.38
15750;BME280;7976;52.526;13.326;2023-03-01T05:22:48;102560.72;;;1.00;75.46
15750;BME280;7976;52.526;13.326;2023-03-01T05:25:17;102570.00;;;0.95;75.31
15750;BME280;7976;52.526;13.326;2023-03-01T05:27:44;102569.06;;;0.93;75.89
15750;BME280;7976;52.526;13.326;2023-03-01T05:30:12;102560.47;;;0.92;75.68
15750;BME280;7976;52.526;13.326;2023-03-01T05:32:45;102559.75;;;0.96;75.80
15750;BME280;7976;52.526;13.326;2023-03-01T05:35:14;102561.47;;;0.97;75.81
15750;BME280;7976;52.526;13.326;2023-03-01T05:37:42;102570.94;;;0.97;75.80
15750;BME280;7976;52.526;13.326;2023-03-01T05:40:13;102566.53;;;0.94;75.87
15750;BME280;7976;52.526;13.326;2023-03-01T05:42:45;102565.47;;;0.88;75.72
15750;BME280;7976;52.526;13.326;2023-03-01T05:45:14;102555.88;;;0.84;75.95
15750;BME280;7976;52.526;13.326;2023-03-01T05:47:44;102557.63;;;0.83;75.83
15750;BME280;7976;52.526;13.326;2023-03-01T05:50:13;102555.13;;;0.86;76.08
15750;BME280;7976;52.526;13.326;2023-03-01T05:52:45;102553.56;;;0.91;76.23
15750;BME280;7976;52.526;13.326;2023-03-01T05:55:15;102553.53;;;0.90;75.86
15750;BME280;7976;52.526;13.326;2023-03-01T05:57:43;102558.59;;;0.87;76.01
15750;BME280;7976;52.526;13.326;2023-03-01T06:00:12;102552.56;;;0.86;76.26
15750;BME280;7976;52.526;13.326;2023-03-01T06:02:40;102558.59;;;0.87;76.47
15750;BME280;7976;52.526;13.326;2023-03-01T06:05:10;102563.84;;;0.90;76.54
15750;BME280;7976;52.526;13.326;2023-03-01T06:07:37;102556.09;;;0.90;76.72
15750;BME280;7976;52.526;13.326;2023-03-01T06:10:06;102569.03;;;0.91;77.27
15750;BME280;7976;52.526;13.326;2023-03-01T06:12:36;102565.63;;;0.92;77.47
15750;BME280;7976;52.526;13.326;2023-03-01T06:15:07;102569.13;;;0.94;77.61
15750;BME280;7976;52.526;13.326;2023-03-01T06:17:37;102569.13;;;0.94;77.76
15750;BME280;7976;52.526;13.326;2023-03-01T06:20:08;102563.16;;;0.95;78.14
15750;BME280;7976;52.526;13.326;2023-03-01T06:22:36;102555.53;;;0.98;78.29
15750;BME280;7976;52.526;13.326;2023-03-01T06:25:05;102558.94;;;0.99;77.94
15750;BME280;7976;52.526;13.326;2023-03-01T06:27:32;102558.94;;;0.99;78.26
15750;BME280;7976;52.526;13.326;2023-03-01T06:29:59;102568.50;;;1.01;78.47
15750;BME280;7976;52.526;13.326;2023-03-01T06:32:27;102569.47;;;1.05;78.67
15750;BME280;7976;52.526;13.326;2023-03-01T06:34:54;102552.41;;;1.08;78.56
15750;BME280;7976;52.526;13.326;2023-03-01T06:37:21;102552.44;;;1.10;78.79
15750;BME280;7976;52.526;13.326;2023-03-01T06:39:48;102564.47;;;1.11;78.46
15750;BME280;7976;52.526;13.326;2023-03-01T06:42:15;102568.00;;;1.13;78.88
15750;BME280;7976;52.526;13.326;2023-03-01T06:44:42;102562.94;;;1.16;78.75
15750;BME280;7976;52.526;13.326;2023-03-01T06:47:09;102568.25;;;1.20;78.92
15750;BME280;7976;52.526;13.326;2023-03-01T06:49:37;102571.66;;;1.21;78.76
15750;BME280;7976;52.526;13.326;2023-03-01T06:52:04;102574.28;;;1.22;78.71
15750;BME280;7976;52.526;13.326;2023-03-01T06:54:31;102568.28;;;1.22;78.61
15750;BME280;7976;52.526;13.326;2023-03-01T06:56:58;102567.53;;;1.26;78.83
15750;BME280;7976;52.526;13.326;2023-03-01T06:59:25;102580.63;;;1.32;78.71
15750;BME280;7976;52.526;13.326;2023-03-01T07:01:52;102575.56;;;1.35;78.79
15750;BME280;7976;52.526;13.326;2023-03-01T07:04:18;102575.63;;;1.38;78.84
15750;BME280;7976;52.526;13.326;2023-03-01T07:06:46;102578.28;;;1.41;78.79
15750;BME280;7976;52.526;13.326;2023-03-01T07:09:19;102579.13;;;1.40;78.68
15750;BME280;7976;52.526;13.326;2023-03-01T07:11:47;102581.75;;;1.42;78.61
15750;BME280;7976;52.526;13.326;2023-03-01T07:14:14;102582.66;;;1.42;78.95
15750;BME280;7976;52.526;13.326;2023-03-01T07:16:41;102582.72;;;1.45;78.50
15750;BME280;7976;52.526;13.326;2023-03-01T07:19:08;102583.69;;;1.49;78.45
15750;BME280;7976;52.526;13.326;2023-03-01T07:21:36;102578.59;;;1.50;78.82
15750;BME280;7976;52.526;13.326;2023-03-01T07:24:07;102581.41;;;1.59;78.42
15750;BME280;7976;52.526;13.326;2023-03-01T07:26:34;102577.22;;;1.63;78.30
15750;BME280;7976;52.526;13.326;2023-03-01T07:29:02;102585.84;;;1.63;78.15
15750;BME280;7976;52.526;13.326;2023-03-01T07:31:29;102578.16;;;1.65;78.32
15750;BME280;7976;52.526;13.326;2023-03-01T07:33:56;102577.34;;;1.66;78.11
15750;BME280;7976;52.526;13.326;2023-03-01T07:36:25;102585.19;;;1.70;77.91
15750;BME280;7976;52.526;13.326;2023-03-01T07:38:52;102586.19;;;1.75;77.84
15750;BME280;7976;52.526;13.326;2023-03-01T07:41:20;102583.81;;;1.83;77.85
15750;BME280;7976;52.526;13.326;2023-03-01T07:43:47;102579.66;;;1.88;77.80
15750;BME280;7976;52.526;13.326;2023-03-01T07:46:14;102576.38;;;1.93;77.63
15750;BME280;7976;52.526;13.326;2023-03-01T07:48:41;102579.13;;;1.99;77.26
15750;BME280;7976;52.526;13.326;2023-03-01T07:51:07;102576.69;;;2.04;77.10
15750;BME280;7976;52.526;13.326;2023-03-01T07:53:35;102575.06;;;2.07;76.88
15750;BME280;7976;52.526;13.326;2023-03-01T07:56:05;102578.59;;;2.11;76.74
15750;BME280;7976;52.526;13.326;2023-03-01T07:58:34;102576.22;;;2.18;76.61
15750;BME280;7976;52.526;13.326;2023-03-01T08:01:02;102580.75;;;2.27;76.40
15750;BME280;7976;52.526;13.326;2023-03-01T08:03:29;102578.41;;;2.36;75.78
15750;BME280;7976;52.526;13.326;2023-03-01T08:05:59;102583.75;;;2.43;75.66
15750;BME280;7976;52.526;13.326;2023-03-01T08:08:26;102579.56;;;2.47;75.19
15750;BME280;7976;52.526;13.326;2023-03-01T08:10:56;102583.88;;;2.48;74.83
15750;BME280;7976;52.526;13.326;2023-03-01T08:13:23;102574.47;;;2.50;74.38
15750;BME280;7976;52.526;13.326;2023-03-01T08:15:51;102565.13;;;2.55;74.30
15750;BME280;7976;52.526;13.326;2023-03-01T08:18:20;102573.03;;;2.61;73.66
15750;BME280;7976;52.526;13.326;2023-03-01T08:20:48;102564.59;;;2.68;73.40
15750;BME280;7976;52.526;13.326;2023-03-01T08:23:14;102574.19;;;2.74;72.78
15750;BME280;7976;52.526;13.326;2023-03-01T08:25:41;102557.09;;;2.79;72.13
15750;BME280;7976;52.526;13.326;2023-03-01T08:28:08;102568.47;;;2.87;71.14
15750;BME280;7976;52.526;13.326;2023-03-01T08:30:35;102564.41;;;2.95;70.89
15750;BME280;7976;52.526;13.326;2023-03-01T08:33:03;102550.94;;;3.09;70.13
15750;BME280;7976;52.526;13.326;2023-03-01T08:35:30;102550.41;;;3.24;69.96
15750;BME280;7976;52.526;13.326;2023-03-01T08:37:57;102538.53;;;3.33;69.53
15750;BME280;7976;52.526;13.326;2023-03-01T08:40:23;102548.19;;;3.42;68.75
15750;BME280;7976;52.526;13.326;2023-03-01T08:42:50;102549.25;;;3.50;68.15
15750;BME280;7976;52.526;13.326;2023-03-01T08:45:17;102539.94;;;3.58;67.64
15750;BME280;7976;52.526;13.326;2023-03-01T08:47:44;102552.28;;;3.72;67.56
15750;BME280;7976;52.526;13.326;2023-03-01T08:50:13;102552.47;;;3.80;67.30
15750;BME280;7976;52.526;13.326;2023-03-01T08:52:39;102545.66;;;3.85;67.37
15750;BME280;7976;52.526;13.326;2023-03-01T08:55:08;102544.88;;;3.91;67.00
15750;BME280;7976;52.526;13.326;2023-03-01T08:57:35;102545.97;;;4.00;66.66
15750;BME280;7976;52.526;13.326;2023-03-01T09:00:02;102550.41;;;4.09;66.56
15750;BME280;7976;52.526;13.326;2023-03-01T09:02:34;102540.19;;;4.15;66.15
15750;BME280;7976;52.526;13.326;2023-03-01T09:05:00;102540.28;;;4.21;66.01
15750;BME280;7976;52.526;13.326;2023-03-01T09:07:29;102527.34;;;4.22;65.17
15750;BME280;7976;52.526;13.326;2023-03-01T09:09:55;102520.53;;;4.27;64.84
15750;BME280;7976;52.526;13.326;2023-03-01T09:12:22;102532.75;;;4.34;64.68
15750;BME280;7976;52.526;13.326;2023-03-01T09:14:50;102528.50;;;4.38;64.34
15750;BME280;7976;52.526;13.326;2023-03-01T09:17:17;102523.47;;;4.47;64.36
15750;BME280;7976;52.526;13.326;2023-03-01T09:19:47;102533.94;;;4.53;64.07
15750;BME280;7976;52.526;13.326;2023-03-01T09:22:14;102530.66;;;4.64;64.34
15750;BME280;7976;52.526;13.326;2023-03-01T09:24:42;102521.28;;;4.72;63.96
15750;BME280;7976;52.526;13.326;2023-03-01T09:27:09;102519.69;;;4.80;63.55
15750;BME280;7976;52.526;13.326;2023-03-01T09:29:37;102526.69;;;4.86;63.29
15750;BME280;7976;52.526;13.326;2023-03-01T09:32:05;102518.09;;;4.88;62.90
15750;BME280;7976;52.526;13.326;2023-03-01T09:34:33;102519.88;;;4.94;62.41
15750;BME280;7976;52.526;13.326;2023-03-01T09:37:20;102525.94;;;4.93;61.42
15750;BME280;7976;52.526;13.326;2023-03-01T09:39:48;102521.69;;;4.98;60.92
15750;BME280;7976;52.526;13.326;2023-03-01T09:42:15;102520.06;;;5.06;60.59
15750;BME280;7976;52.526;13.326;2023-03-01T09:44:50;102521.84;;;5.08;60.61
15750;BME280;7976;52.526;13.326;2023-03-01T09:47:25;102518.50;;;5.16;60.55
15750;BME280;7976;52.526;13.326;2023-03-01T09:50:03;102519.34;;;5.18;59.99
15750;BME280;7976;52.526;13.326;2023-03-01T09:52:39;102518.56;;;5.22;60.24
15750;BME280;7976;52.526;13.326;2023-03-01T09:55:16;102512.63;;;5.30;60.29
15750;BME280;7976;52.526;13.326;2023-03-01T09:57:52;102520.56;;;5.41;60.32
15750;BME280;7976;52.526;13.326;2023-03-01T10:00:37;102520.66;;;5.50;60.19
15750;BME280;7976;52.526;13.326;2023-03-01T10:03:16;102520.75;;;5.56;59.65
15750;BME280;7976;52.526;13.326;2023-03-01T10:05:57;102519.00;;;5.56;58.64
15750;BME280;7976;52.526;13.326;2023-03-01T10:08:33;102524.28;;;5.62;58.73
15750;BME280;7976;52.526;13.326;2023-03-01T10:11:17;102522.66;;;5.72;58.42
15750;BME280;7976;52.526;13.326;2023-03-01T10:13:51;102525.44;;;5.85;57.72
15750;BME280;7976;52.526;13.326;2023-03-01T10:16:28;102525.50;;;5.90;57.51
15750;BME280;7976;52.526;13.326;2023-03-01T10:19:03;102522.91;;;5.93;57.64
15750;BME280;7976;52.526;13.326;2023-03-01T10:21:42;102528.22;;;6.00;57.66
15750;BME280;7976;52.526;13.326;2023-03-01T10:24:14;102519.63;;;6.06;57.55
15750;BME280;7976;52.526;13.326;2023-03-01T10:26:55;102518.78;;;6.10;57.00
15750;BME280;7976;52.526;13.326;2023-03-01T10:29:30;102514.47;;;6.12;56.27
15750;BME280;7976;52.526;13.326;2023-03-01T10:32:03;102514.56;;;6.21;56.52
15750;BME280;7976;52.526;13.326;2023-03-01T10:34:34;102506.84;;;6.31;56.87
15750;BME280;7976;52.526;13.326;2023-03-01T10:37:11;102502.63;;;6.40;56.39
15750;BME280;7976;52.526;13.326;2023-03-01T10:39:56;102505.25;;;6.47;54.99
15750;BME280;7976;52.526;13.326;2023-03-01T10:42:29;102501.00;;;6.57;54.73
15750;BME280;7976;52.526;13.326;2023-03-01T10:44:58;102499.34;;;6.66;54.55
15750;BME280;7976;52.526;13.326;2023-03-01T10:47:27;102490.69;;;6.72;53.55
15750;BME280;7976;52.526;13.326;2023-03-01T10:49:59;102485.59;;;6.82;53.31
15750;BME280;7976;52.526;13.326;2023-03-01T10:52:31;102487.34;;;6.86;52.35
15750;BME280;7976;52.526;13.326;2023-03-01T10:55:02;102485.66;;;6.90;51.41
15750;BME280;7976;52.526;13.326;2023-03-01T10:57:38;102476.09;;;6.93;51.37
15750;BME280;7976;52.526;13.326;2023-03-01T11:00:21;102478.75;;;6.99;51.79
15750;BME280;7976;52.526;13.326;2023-03-01T11:03:01;102476.16;;;7.02;51.83
15750;BME280;7976;52.526;13.326;2023-03-01T11:05:29;102475.31;;;7.05;51.44
15750;BME280;7976;52.526;13.326;2023-03-01T11:08:01;102470.97;;;7.04;50.94
15750;BME280;7976;52.526;13.326;2023-03-01T11:10:31;102466.66;;;7.07;50.88
15750;BME280;7976;52.526;13.326;2023-03-01T11:13:15;102461.44;;;7.07;50.58
15750;BME280;7976;52.526;13.326;2023-03-01T11:15:58;102451.03;;;7.13;50.84
15750;BME280;7976;52.526;13.326;2023-03-01T11:18:26;102447.63;;;7.20;51.10
15750;BME280;7976;52.526;13.326;2023-03-01T11:20:55;102440.69;;;7.25;51.36
15750;BME280;7976;52.526;13.326;2023-03-01T11:23:24;102442.44;;;7.26;51.12
15750;BME280;7976;52.526;13.326;2023-03-01T11:25:56;102451.16;;;7.30;50.21
15750;BME280;7976;52.526;13.326;2023-03-01T11:28:29;102446.84;;;7.39;50.86
15750;BME280;7976;52.526;13.326;2023-03-01T11:31:01;102445.13;;;7.44;50.97
15750;BME280;7976;52.526;13.326;2023-03-01T11:33:40;102446.00;;;7.45;50.18
15750;BME280;7976;52.526;13.326;2023-03-01T11:36:22;102442.50;;;7.44;49.36
15750;BME280;7976;52.526;13.326;2023-03-01T11:38:51;102439.91;;;7.41;48.44
15750;BME280;7976;52.526;13.326;2023-03-01T11:41:21;102432.97;;;7.45;48.36
15750;BME280;7976;52.526;13.326;2023-03-01T11:43:57;102428.66;;;7.51;48.53
15750;BME280;7976;52.526;13.326;2023-03-01T11:47:12;102436.47;;;7.59;49.04
15750;BME280;7976;52.526;13.326;2023-03-01T11:50:07;102434.75;;;7.62;48.73
15750;BME280;7976;52.526;13.326;2023-03-01T11:52:48;102436.50;;;7.68;47.67
15750;BME280;7976;52.526;13.326;2023-03-01T11:55:36;102435.63;;;7.71;46.05
15750;BME280;7976;52.526;13.326;2023-03-01T11:58:32;102436.50;;;7.67;43.80
15750;BME280;7976;52.526;13.326;2023-03-01T12:01:17;102433.88;;;7.63;43.80
15750;BME280;7976;52.526;13.326;2023-03-01T12:04:51;102432.13;;;7.68;43.21
15750;BME280;7976;52.526;13.326;2023-03-01T12:07:33;102424.31;;;7.68;42.22
15750;BME280;7976;52.526;13.326;2023-03-01T12:10:23;102414.81;;;7.74;42.55
15750;BME280;7976;52.526;13.326;2023-03-01T12:16:18;102399.19;;;7.98;43.35
15750;BME280;7976;52.526;13.326;2023-03-01T12:22:09;102408.75;;;8.05;44.72
15750;BME280;7976;52.526;13.326;2023-03-01T12:25:25;102400.91;;;8.06;43.85
15750;BME280;7976;52.526;13.326;2023-03-01T12:28:23;102400.91;;;8.09;42.63
15750;BME280;7976;52.526;13.326;2023-03-01T12:31:35;102387.03;;;8.12;43.06
15750;BME280;7976;52.526;13.326;2023-03-01T12:34:25;102391.34;;;8.14;43.77
15750;BME280;7976;52.526;13.326;2023-03-01T12:37:18;102382.69;;;8.18;43.95
15750;BME280;7976;52.526;13.326;2023-03-01T12:40:03;102380.06;;;8.23;43.97
15750;BME280;7976;52.526;13.326;2023-03-01T12:42:47;102367.94;;;8.23;43.42
15750;BME280;7976;52.526;13.326;2023-03-01T12:45:48;102375.75;;;8.25;42.18
15750;BME280;7976;52.526;13.326;2023-03-01T12:48:37;102369.63;;;8.23;41.97
15750;BME280;7976;52.526;13.326;2023-03-01T12:51:11;102365.31;;;8.23;41.66
15750;BME280;7976;52.526;13.326;2023-03-01T12:53:44;102358.38;;;8.24;41.55
15750;BME280;7976;52.526;13.326;2023-03-01T12:56:17;102351.41;;;8.17;41.51
15750;BME280;7976;52.526;13.326;2023-03-01T12:58:57;102354.00;;;8.14;41.49
15750;BME280;7976;52.526;13.326;2023-03-01T13:01:36;102360.09;;;8.11;41.32
15750;BME280;7976;52.526;13.326;2023-03-01T13:04:24;102352.25;;;8.13;41.86
15750;BME280;7976;52.526;13.326;2023-03-01T13:07:08;102346.19;;;8.15;42.17
15750;BME280;7976;52.526;13.326;2023-03-01T13:09:48;102347.06;;;8.19;42.26
15750;BME280;7976;52.526;13.326;2023-03-01T13:12:45;102345.34;;;8.25;41.50
15750;BME280;7976;52.526;13.326;2023-03-01T13:15:33;102347.91;;;8.33;41.18
15750;BME280;7976;52.526;13.326;2023-03-01T13:18:04;102344.44;;;8.37;40.76
15750;BME280;7976;52.526;13.326;2023-03-01T13:20:55;102340.09;;;8.42;39.64
15750;BME280;7976;52.526;13.326;2023-03-01T13:23:30;102343.53;;;8.53;39.25
15750;BME280;7976;52.526;13.326;2023-03-01T13:26:08;102337.41;;;8.69;39.15
15750;BME280;7976;52.526;13.326;2023-03-01T13:28:52;102340.84;;;8.75;39.41
15750;BME280;7976;52.526;13.326;2023-03-01T13:31:57;102333.03;;;8.74;39.79
15750;BME280;7976;52.526;13.326;2023-03-01T13:34:57;102330.44;;;8.68;39.87